Time;durP1;ratioP1;P1;durP2;ratioP2;P2;SDS_P1;SDS_P2;PMS_P1;PMS_P2;Temp;Humidity;BMP_temperature;BMP_pressure;BME280_temperature;BME280_humidity;BME280_pressure;Samples;Min_cycle;Max_cycle;Signal;HPM_P1;HPM_P2
2023/03/09 00:01:26;;;;;;;18.88;12.60;;;1.40;1.00;;;;;;5060254;28;20230;-85
2023/03/09 00:03:56;;;;;;;19.73;11.52;;;1.00;1.00;;;;;;5059070;28;20207;-84
2023/03/09 00:06:23;;;;;;;25.33;13.90;;;1.00;1.00;;;;;;5085063;22;20227;-84
2023/03/09 00:08:50;;;;;;;22.42;12.98;;;1.40;1.00;;;;;;5059578;28;20709;-85
2023/03/09 00:11:18;;;;;;;21.88;10.73;;;1.40;1.00;;;;;;5059511;28;20224;-85
2023/03/09 00:13:48;;;;;;;23.75;13.10;;;1.40;1.00;;;;;;5058967;28;20270;-85
2023/03/09 00:16:17;;;;;;;21.23;13.45;;;1.50;1.00;;;;;;5059276;28;20223;-85
2023/03/09 00:18:44;;;;;;;21.40;13.35;;;1.30;1.00;;;;;;5060073;28;20204;-83
2023/03/09 00:21:14;;;;;;;21.60;11.75;;;1.30;1.00;;;;;;5077559;22;20263;-79
2023/03/09 00:23:42;;;;;;;22.13;11.90;;;1.30;1.00;;;;;;5057281;28;20191;-79
2023/03/09 00:26:09;;;;;;;24.48;12.68;;;1.30;1.00;;;;;;5056167;28;20207;-78
2023/03/09 00:28:37;;;;;;;25.55;13.90;;;1.40;1.00;;;;;;5056189;28;20203;-78
2023/03/09 00:31:07;;;;;;;20.75;12.50;;;1.40;1.00;;;;;;5055702;28;20318;-79
2023/03/09 00:33:34;;;;;;;23.83;13.30;;;1.50;1.00;;;;;;5055857;28;20275;-80
2023/03/09 00:36:01;;;;;;;27.58;14.98;;;1.30;1.00;;;;;;5057613;28;20573;-79
2023/03/09 00:38:27;;;;;;;25.30;13.45;;;1.40;1.00;;;;;;5057093;28;20203;-79
2023/03/09 00:40:54;;;;;;;21.15;14.45;;;1.40;1.00;;;;;;5056423;28;20710;-79
2023/03/09 00:43:21;;;;;;;23.50;13.32;;;1.40;99.90;;;;;;5058535;28;20302;-79
2023/03/09 00:45:48;;;;;;;20.98;12.65;;;1.40;99.90;;;;;;5060293;28;20199;-79
2023/03/09 00:48:16;;;;;;;20.38;13.48;;;1.40;99.90;;;;;;5062396;28;20210;-78
2023/03/09 00:50:43;;;;;;;22.50;13.50;;;1.40;99.90;;;;;;5058743;28;20314;-79
2023/03/09 00:53:09;;;;;;;25.17;13.55;;;1.40;99.90;;;;;;5056842;28;20584;-78
2023/03/09 00:55:37;;;;;;;24.42;13.77;;;1.40;99.90;;;;;;5057424;28;20213;-78
2023/03/09 00:58:03;;;;;;;23.67;13.57;;;1.40;99.90;;;;;;5058778;28;20290;-79
2023/03/09 01:00:33;;;;;;;26.90;15.45;;;1.40;99.90;;;;;;5066397;28;20288;-79
2023/03/09 01:03:00;;;;;;;31.60;15.85;;;1.40;99.90;;;;;;5068535;28;20206;-79
2023/03/09 01:05:28;;;;;;;21.30;13.70;;;1.40;99.90;;;;;;5071049;28;20289;-79
2023/03/09 01:07:55;;;;;;;22.45;15.20;;;1.40;99.90;;;;;;5058392;28;20199;-78
2023/03/09 01:10:22;;;;;;;21.60;14.38;;;1.40;99.90;;;;;;5057584;28;20295;-79
2023/03/09 01:12:49;;;;;;;24.88;14.25;;;1.50;99.90;;;;;;5057700;28;20215;-80
2023/03/09 01:15:16;;;;;;;23.40;14.40;;;1.50;99.90;;;;;;5056338;28;20299;-78
2023/03/09 01:17:43;;;;;;;21.73;12.13;;;1.50;99.90;;;;;;5055258;28;20249;-78
2023/03/09 01:20:11;;;;;;;27.30;15.50;;;1.50;1.00;;;;;;5059701;28;20207;-77
2023/03/09 01:22:40;;;;;;;24.60;14.55;;;1.40;99.90;;;;;;5064990;28;20208;-78
2023/03/09 01:25:07;;;;;;;28.42;15.40;;;1.40;99.90;;;;;;5061834;28;20231;-77
2023/03/09 01:27:34;;;;;;;23.50;13.77;;;1.50;99.90;;;;;;5062810;28;20203;-78
2023/03/09 01:30:01;;;;;;;23.92;13.98;;;1.60;99.90;;;;;;5060496;28;20225;-78
2023/03/09 01:32:28;;;;;;;24.45;14.52;;;1.40;99.90;;;;;;5060004;28;20204;-79
2023/03/09 01:34:55;;;;;;;22.25;14.15;;;1.40;99.90;;;;;;5059038;28;20209;-78
2023/03/09 01:37:22;;;;;;;24.88;15.38;;;1.40;99.90;;;;;;5058670;28;20204;-78
2023/03/09 01:39:50;;;;;;;25.98;15.02;;;1.50;99.90;;;;;;5060015;28;20203;-78
2023/03/09 01:42:17;;;;;;;23.77;15.25;;;1.40;99.90;;;;;;5060723;28;20258;-78
2023/03/09 01:44:44;;;;;;;29.10;14.60;;;1.40;99.90;;;;;;5061885;28;20207;-78
2023/03/09 01:47:10;;;;;;;25.98;14.65;;;1.50;1.00;;;;;;5065222;28;20213;-78
2023/03/09 01:49:41;;;;;;;31.38;15.82;;;1.40;99.90;;;;;;5062314;28;20203;-78
2023/03/09 01:52:15;;;;;;;24.88;16.20;;;1.40;99.90;;;;;;5059765;28;20233;-78
2023/03/09 01:54:47;;;;;;;26.45;15.60;;;1.40;99.90;;;;;;5059422;28;20190;-78
2023/03/09 01:57:22;;;;;;;28.27;15.70;;;1.40;99.90;;;;;;5058010;28;20547;-79
2023/03/09 01:59:51;;;;;;;25.98;15.85;;;1.30;99.90;;;;;;5057275;28;20191;-78
2023/03/09 02:02:21;;;;;;;32.17;16.42;;;1.30;1.00;;;;;;5055891;28;20219;-78
2023/03/09 02:04:51;;;;;;;29.98;16.92;;;1.30;1.00;;;;;;5054953;28;20199;-78
2023/03/09 02:07:22;;;;;;;24.70;15.15;;;1.30;1.00;;;;;;5054698;28;20559;-79
2023/03/09 02:09:53;;;;;;;29.23;16.58;;;1.20;1.00;;;;;;5055815;28;20330;-79
2023/03/09 02:12:22;;;;;;;28.80;17.05;;;1.20;1.00;;;;;;5054119;28;20232;-79
2023/03/09 02:14:49;;;;;;;28.95;16.75;;;1.20;1.00;;;;;;5055191;28;20231;-78
2023/03/09 02:17:17;;;;;;;31.40;15.98;;;1.20;1.00;;;;;;5056776;28;20215;-78
2023/03/09 02:19:56;;;;;;;31.73;17.60;;;1.20;1.00;;;;;;5057880;28;20716;-78
2023/03/09 02:22:23;;;;;;;26.75;15.68;;;1.20;1.00;;;;;;5056994;28;20616;-78
2023/03/09 02:24:59;;;;;;;31.08;17.45;;;1.20;1.00;;;;;;5056078;28;20301;-78
2023/03/09 02:27:29;;;;;;;27.75;15.60;;;1.20;1.00;;;;;;5056949;28;20257;-79
2023/03/09 02:29:57;;;;;;;27.25;15.63;;;1.20;1.00;;;;;;5057263;28;20666;-79
2023/03/09 02:32:24;;;;;;;34.13;17.15;;;1.10;1.00;;;;;;5058698;28;20299;-79
2023/03/09 02:34:51;;;;;;;27.95;17.23;;;1.20;1.00;;;;;;5058698;28;20619;-78
2023/03/09 02:37:26;;;;;;;31.13;15.35;;;1.10;1.00;;;;;;5057267;28;20203;-78
2023/03/09 02:39:57;;;;;;;30.52;16.08;;;1.10;1.00;;;;;;5058314;28;20209;-78
2023/03/09 02:42:25;;;;;;;39.42;18.05;;;1.10;1.00;;;;;;5057577;28;20194;-79
2023/03/09 02:44:53;;;;;;;31.95;17.23;;;1.10;1.00;;;;;;5058163;28;20207;-79
2023/03/09 02:47:22;;;;;;;32.50;17.05;;;1.10;1.00;;;;;;5058353;28;20216;-78
2023/03/09 02:49:49;;;;;;;35.28;18.33;;;1.10;1.00;;;;;;5057090;28;20216;-78
2023/03/09 02:52:16;;;;;;;33.85;17.05;;;1.10;1.00;;;;;;5057927;28;20223;-78
2023/03/09 02:54:43;;;;;;;36.45;18.50;;;1.20;1.00;;;;;;5070307;28;20226;-78
2023/03/09 02:57:10;;;;;;;34.75;17.42;;;1.20;1.00;;;;;;5075995;28;20211;-78
2023/03/09 02:59:36;;;;;;;37.67;18.45;;;1.10;1.00;;;;;;5055963;28;20287;-78
2023/03/09 03:02:05;;;;;;;36.15;18.73;;;1.20;1.00;;;;;;5059026;28;20225;-78
2023/03/09 03:04:32;;;;;;;28.75;16.10;;;1.10;1.00;;;;;;5061749;28;20207;-78
2023/03/09 03:06:59;;;;;;;33.50;15.93;;;1.10;1.00;;;;;;5063686;28;20199;-78
2023/03/09 03:09:26;;;;;;;29.52;17.58;;;1.10;1.00;;;;;;5064320;28;20203;-78
2023/03/09 03:11:53;;;;;;;30.45;18.35;;;1.10;1.00;;;;;;5063857;28;20223;-77
2023/03/09 03:14:20;;;;;;;33.83;18.88;;;1.10;1.00;;;;;;5063784;28;20215;-77
2023/03/09 03:16:46;;;;;;;33.08;17.83;;;1.10;1.00;;;;;;5064003;28;20235;-78
2023/03/09 03:19:15;;;;;;;35.03;18.17;;;1.00;1.00;;;;;;5061878;28;20215;-78
2023/03/09 03:21:41;;;;;;;30.25;16.60;;;1.00;1.00;;;;;;5058633;28;20321;-78
2023/03/09 03:24:08;;;;;;;34.78;16.98;;;1.00;1.00;;;;;;5058775;28;20298;-78
2023/03/09 03:26:37;;;;;;;31.83;17.35;;;1.00;1.00;;;;;;5058581;28;20209;-77
2023/03/09 03:29:04;;;;;;;33.05;18.75;;;1.00;1.00;;;;;;5058960;28;20230;-78
2023/03/09 03:31:32;;;;;;;30.75;18.23;;;1.10;1.00;;;;;;5057569;28;20712;-78
2023/03/09 03:33:59;;;;;;;27.80;15.15;;;1.00;1.00;;;;;;5063029;28;20620;-78
2023/03/09 03:36:28;;;;;;;31.52;16.00;;;0.90;1.00;;;;;;5058737;28;20200;-78
2023/03/09 03:38:54;;;;;;;24.90;14.85;;;0.90;1.00;;;;;;5058660;28;20203;-78
2023/03/09 03:41:21;;;;;;;24.10;14.55;;;0.90;1.00;;;;;;5057791;28;20235;-78
2023/03/09 03:43:48;;;;;;;37.65;17.00;;;0.90;1.00;;;;;;5057784;28;20204;-78
2023/03/09 03:46:15;;;;;;;30.98;16.48;;;0.00;1.00;;;;;;5057748;28;20204;-78
2023/03/09 03:48:42;;;;;;;30.67;16.88;;;0.90;1.00;;;;;;5057728;28;20203;-78
2023/03/09 03:51:09;;;;;;;32.42;15.93;;;0.80;1.00;;;;;;5058072;28;20661;-78
2023/03/09 03:53:37;;;;;;;26.98;15.70;;;0.90;1.00;;;;;;5057907;28;20211;-78
2023/03/09 03:56:05;;;;;;;28.83;14.32;;;0.90;1.00;;;;;;5057764;28;20209;-78
2023/03/09 03:58:32;;;;;;;33.50;17.10;;;0.90;1.00;;;;;;5057424;28;20204;-78
2023/03/09 04:00:58;;;;;;;26.77;15.82;;;0.90;1.00;;;;;;5057487;28;20222;-78
2023/03/09 04:03:25;;;;;;;31.05;16.15;;;0.90;1.00;;;;;;5057334;28;20567;-78
2023/03/09 04:05:52;;;;;;;31.17;15.90;;;0.80;1.00;;;;;;5057118;28;20196;-78
2023/03/09 04:08:19;;;;;;;33.95;16.65;;;0.80;1.00;;;;;;5057928;28;20210;-78
2023/03/09 04:10:47;;;;;;;30.83;16.55;;;0.80;1.00;;;;;;5057566;28;20250;-78
2023/03/09 04:13:14;;;;;;;28.35;15.15;;;0.80;1.00;;;;;;5057250;28;20200;-79
2023/03/09 04:15:41;;;;;;;34.63;16.80;;;0.80;1.00;;;;;;5057112;28;20221;-78
2023/03/09 04:18:08;;;;;;;34.53;16.40;;;0.80;1.00;;;;;;5057265;28;20294;-79
2023/03/09 04:20:36;;;;;;;29.73;17.08;;;0.70;1.00;;;;;;5057933;28;20234;-78
2023/03/09 04:23:03;;;;;;;30.08;17.70;;;0.80;1.00;;;;;;5067382;28;20214;-77
2023/03/09 04:25:30;;;;;;;27.48;15.95;;;0.80;1.00;;;;;;5080233;28;20176;-77
2023/03/09 04:27:58;;;;;;;33.40;17.65;;;0.80;1.00;;;;;;5080044;28;20248;-78
2023/03/09 04:30:25;;;;;;;27.50;17.50;;;0.80;1.00;;;;;;5062954;28;20326;-78
2023/03/09 04:32:52;;;;;;;27.98;16.10;;;0.80;1.00;;;;;;5063106;28;20306;-78
2023/03/09 04:35:19;;;;;;;29.63;15.57;;;0.80;1.00;;;;;;5060359;28;20688;-79
2023/03/09 04:37:46;;;;;;;28.40;16.60;;;0.80;1.00;;;;;;5059889;28;20212;-78
2023/03/09 04:40:14;;;;;;;37.63;20.73;;;1.10;1.00;;;;;;5067948;28;20238;-77
2023/03/09 04:42:41;;;;;;;33.85;17.60;;;0.80;1.00;;;;;;5070910;28;20290;-79
2023/03/09 04:45:10;;;;;;;27.98;17.92;;;1.10;1.00;;;;;;5064405;28;20231;-79
2023/03/09 04:47:37;;;;;;;30.33;17.35;;;0.80;1.00;;;;;;5064974;28;20209;-79
2023/03/09 04:50:04;;;;;;;30.80;17.33;;;0.50;1.00;;;;;;5064905;28;20271;-79
2023/03/09 04:52:31;;;;;;;29.40;17.58;;;0.80;1.00;;;;;;5063105;28;20551;-79
2023/03/09 04:54:58;;;;;;;30.50;15.85;;;0.90;1.00;;;;;;5064860;28;20297;-79
2023/03/09 04:57:26;;;;;;;38.58;18.55;;;1.10;1.00;;;;;;5060651;28;20291;-80
2023/03/09 04:59:53;;;;;;;32.80;19.83;;;0.80;1.00;;;;;;5058632;28;20276;-79
2023/03/09 05:02:21;;;;;;;34.80;18.35;;;0.90;1.00;;;;;;5058346;28;20215;-80
2023/03/09 05:04:48;;;;;;;29.80;17.75;;;0.80;1.00;;;;;;5056627;28;20225;-79
2023/03/09 05:07:14;;;;;;;33.50;18.92;;;0.90;1.00;;;;;;5056177;28;20200;-79
2023/03/09 05:09:41;;;;;;;30.80;17.63;;;0.80;1.00;;;;;;5061613;28;20567;-78
2023/03/09 05:12:08;;;;;;;37.03;21.20;;;0.80;1.00;;;;;;5067354;28;20247;-78
2023/03/09 05:14:35;;;;;;;34.45;18.95;;;0.80;1.00;;;;;;5065244;28;20215;-78
2023/03/09 05:17:02;;;;;;;33.30;19.38;;;0.90;1.00;;;;;;5058573;28;20292;-80
2023/03/09 05:19:30;;;;;;;30.88;18.02;;;0.90;1.00;;;;;;5062916;28;20223;-79
2023/03/09 05:21:57;;;;;;;34.58;19.85;;;1.00;1.00;;;;;;5065417;28;20316;-79
2023/03/09 05:24:24;;;;;;;27.77;17.13;;;0.80;1.00;;;;;;5065641;28;20199;-79
2023/03/09 05:26:51;;;;;;;33.33;16.88;;;0.90;1.00;;;;;;5064968;28;20741;-79
2023/03/09 05:29:17;;;;;;;31.10;17.98;;;0.90;1.00;;;;;;5060182;28;20211;-79
2023/03/09 05:31:44;;;;;;;33.45;18.73;;;0.80;1.00;;;;;;5062554;28;20290;-80
2023/03/09 05:34:11;;;;;;;33.25;18.48;;;0.80;1.00;;;;;;5058632;28;20298;-79
2023/03/09 05:36:40;;;;;;;31.10;18.52;;;0.90;1.00;;;;;;5061597;28;20214;-80
2023/03/09 05:39:06;;;;;;;27.40;17.13;;;0.90;1.00;;;;;;5064588;28;20203;-79
2023/03/09 05:41:33;;;;;;;29.30;18.67;;;0.90;1.00;;;;;;5070060;28;20225;-80
2023/03/09 05:44:00;;;;;;;34.08;21.40;;;1.00;1.00;;;;;;5057124;28;20206;-79
2023/03/09 05:46:27;;;;;;;36.13;20.38;;;0.80;1.00;;;;;;5056690;28;20203;-79
2023/03/09 05:48:54;;;;;;;36.65;19.45;;;0.80;1.00;;;;;;5056712;28;20614;-78
2023/03/09 05:51:21;;;;;;;32.28;19.75;;;0.80;1.00;;;;;;5055716;28;20223;-78
2023/03/09 05:53:49;;;;;;;36.70;18.67;;;0.80;1.00;;;;;;5056142;28;20743;-79
2023/03/09 05:56:16;;;;;;;32.70;18.88;;;0.80;1.00;;;;;;5055953;28;20203;-80
2023/03/09 05:58:43;;;;;;;33.03;20.33;;;0.80;1.00;;;;;;5056864;28;20211;-78
2023/03/09 06:01:20;;;;;;;35.70;21.35;;;0.80;1.00;;;;;;5056061;28;20314;-78
2023/03/09 06:03:46;;;;;;;38.88;19.90;;;0.80;1.00;;;;;;5073896;28;20251;-78
2023/03/09 06:06:14;;;;;;;30.13;17.85;;;0.80;1.00;;;;;;5071483;28;20203;-78
2023/03/09 06:08:40;;;;;;;33.55;20.52;;;0.80;1.00;;;;;;5076068;28;20291;-78
2023/03/09 06:11:09;;;;;;;33.60;19.45;;;0.80;1.00;;;;;;5068425;28;20731;-78
2023/03/09 06:13:36;;;;;;;31.30;19.17;;;0.80;1.00;;;;;;5056311;28;20237;-80
2023/03/09 06:16:04;;;;;;;37.25;21.20;;;0.80;1.00;;;;;;5056360;28;20287;-78
2023/03/09 06:18:31;;;;;;;38.00;19.00;;;0.80;1.00;;;;;;5056240;28;20211;-78
2023/03/09 06:21:02;;;;;;;37.70;21.02;;;0.80;1.00;;;;;;5057277;28;20233;-78
2023/03/09 06:23:28;;;;;;;38.55;20.85;;;0.80;1.00;;;;;;5057523;28;20214;-79
2023/03/09 06:25:55;;;;;;;38.83;19.92;;;0.80;1.00;;;;;;5056580;28;20199;-79
2023/03/09 06:28:25;;;;;;;37.75;21.77;;;0.80;1.00;;;;;;5055848;28;20214;-78
2023/03/09 06:30:51;;;;;;;37.75;22.52;;;0.80;1.00;;;;;;5055608;28;20223;-79
2023/03/09 06:33:18;;;;;;;41.17;21.73;;;0.80;1.00;;;;;;5056102;28;20313;-78
2023/03/09 06:35:45;;;;;;;34.58;21.17;;;0.80;1.00;;;;;;5058089;28;20627;-79
2023/03/09 06:38:12;;;;;;;31.92;18.65;;;0.80;1.00;;;;;;5057189;28;20247;-79
2023/03/09 06:40:39;;;;;;;37.20;21.38;;;1.20;1.00;;;;;;5058173;28;20330;-79
2023/03/09 06:43:06;;;;;;;32.42;19.65;;;0.80;1.00;;;;;;5062124;28;20234;-80
2023/03/09 06:45:34;;;;;;;40.40;22.50;;;0.80;1.00;;;;;;5063783;28;20211;-80
2023/03/09 06:48:01;;;;;;;32.95;20.73;;;0.80;1.00;;;;;;5060298;28;20310;-80
2023/03/09 06:50:28;;;;;;;32.90;19.70;;;0.80;1.00;;;;;;5059720;28;20718;-79
2023/03/09 06:52:55;;;;;;;37.72;20.85;;;0.80;1.00;;;;;;5060889;28;20229;-78
2023/03/09 06:55:22;;;;;;;29.92;19.42;;;0.80;1.00;;;;;;5068251;28;20207;-79
2023/03/09 06:57:49;;;;;;;33.38;20.05;;;0.80;1.00;;;;;;5066783;28;20227;-79
2023/03/09 07:00:17;;;;;;;36.78;20.70;;;0.90;1.00;;;;;;5069957;28;20317;-78
2023/03/09 07:02:45;;;;;;;35.63;22.55;;;0.90;1.00;;;;;;5065463;28;20265;-79
2023/03/09 07:05:12;;;;;;;35.92;21.95;;;1.00;1.00;;;;;;5069213;28;20226;-79
2023/03/09 07:07:39;;;;;;;32.25;17.63;;;1.00;1.00;;;;;;5069738;28;20207;-79
2023/03/09 07:10:07;;;;;;;30.92;17.90;;;0.60;1.00;;;;;;5068668;28;20294;-79
2023/03/09 07:12:33;;;;;;;30.17;18.50;;;1.00;1.00;;;;;;5064519;28;20635;-79
2023/03/09 07:15:00;;;;;;;39.80;19.70;;;1.00;1.00;;;;;;5059533;28;20203;-78
2023/03/09 07:17:27;;;;;;;38.45;19.85;;;1.00;1.00;;;;;;5060970;28;20299;-79
2023/03/09 07:19:56;;;;;;;36.85;20.42;;;1.00;1.00;;;;;;5062353;28;20262;-79
2023/03/09 07:22:23;;;;;;;37.80;20.27;;;1.00;1.00;;;;;;5061077;28;20254;-79
2023/03/09 07:24:50;;;;;;;36.20;19.70;;;1.10;1.00;;;;;;5061484;28;20242;-80
2023/03/09 07:27:18;;;;;;;39.60;17.98;;;1.10;1.00;;;;;;5062031;28;20282;-79
2023/03/09 07:29:45;;;;;;;48.17;22.35;;;1.20;1.00;;;;;;5060415;28;20211;-80
2023/03/09 07:32:13;;;;;;;40.75;18.48;;;1.20;1.00;;;;;;5059070;28;20232;-79
2023/03/09 07:34:39;;;;;;;24.38;16.55;;;1.20;1.00;;;;;;5060349;28;20235;-79
2023/03/09 07:37:08;;;;;;;32.20;17.60;;;1.20;1.00;;;;;;5060553;28;20639;-79
2023/03/09 07:39:34;;;;;;;25.45;16.05;;;1.20;1.00;;;;;;5060493;28;20213;-79
2023/03/09 07:42:01;;;;;;;59.42;28.15;;;1.10;1.00;;;;;;5060325;28;20225;-80
2023/03/09 07:44:28;;;;;;;29.15;18.20;;;1.10;1.00;;;;;;5060147;28;20575;-80
2023/03/09 07:46:55;;;;;;;24.52;15.18;;;1.10;1.00;;;;;;5059090;28;20203;-78
2023/03/09 07:49:22;;;;;;;20.25;14.57;;;1.10;1.00;;;;;;5060241;28;20203;-79
2023/03/09 07:51:49;;;;;;;26.60;16.27;;;1.20;1.00;;;;;;5059541;28;20220;-80
2023/03/09 07:54:17;;;;;;;23.85;15.00;;;1.10;99.90;;;;;;5059935;28;20644;-78
2023/03/09 07:56:47;;;;;;;28.55;16.83;;;1.20;99.90;;;;;;5057802;28;20203;-79
2023/03/09 07:59:16;;;;;;;23.67;15.52;;;1.20;99.90;;;;;;5058697;28;20211;-78
2023/03/09 08:01:42;;;;;;;27.63;16.90;;;1.20;99.90;;;;;;5060477;28;20294;-79
2023/03/09 08:04:10;;;;;;;19.52;14.80;;;1.30;99.90;;;;;;5057544;28;20654;-79
2023/03/09 08:06:39;;;;;;;21.95;14.95;;;1.30;99.90;;;;;;5057847;28;20300;-79
2023/03/09 08:09:06;;;;;;;26.65;15.48;;;1.40;99.90;;;;;;5058245;28;20597;-78
2023/03/09 08:11:35;;;;;;;22.15;14.65;;;1.50;99.90;;;;;;5057446;28;20238;-79
2023/03/09 08:14:01;;;;;;;22.75;15.07;;;1.60;99.90;;;;;;5057750;28;20289;-79
2023/03/09 08:16:28;;;;;;;19.92;14.50;;;1.40;99.90;;;;;;5057698;28;20290;-80
2023/03/09 08:18:55;;;;;;;21.55;15.32;;;1.30;99.90;;;;;;5059304;28;20203;-79
2023/03/09 08:21:22;;;;;;;22.25;14.88;;;1.20;99.90;;;;;;5057242;28;20725;-79
2023/03/09 08:23:50;;;;;;;26.17;16.02;;;1.40;99.90;;;;;;5057205;28;20199;-79
2023/03/09 08:26:18;;;;;;;22.20;14.82;;;1.40;99.90;;;;;;5059510;28;20660;-79
2023/03/09 08:28:47;;;;;;;22.30;14.65;;;1.40;99.90;;;;;;5060255;28;20229;-79
2023/03/09 08:31:17;;;;;;;20.77;15.07;;;1.30;99.90;;;;;;5061250;28;20251;-80
2023/03/09 08:33:44;;;;;;;22.55;16.88;;;1.40;99.90;;;;;;5061426;28;20207;-79
2023/03/09 08:36:15;;;;;;;20.85;14.88;;;1.50;99.90;;;;;;5068813;28;20238;-80
2023/03/09 08:38:42;;;;;;;20.63;14.45;;;1.50;99.90;;;;;;5070647;28;20210;-79
2023/03/09 08:41:09;;;;;;;25.17;16.50;;;1.50;99.90;;;;;;5069465;28;20290;-79
2023/03/09 08:43:36;;;;;;;24.35;16.13;;;1.50;99.90;;;;;;5067673;28;20235;-79
2023/03/09 08:46:05;;;;;;;25.02;15.85;;;1.60;99.90;;;;;;5063787;28;20213;-79
2023/03/09 08:48:32;;;;;;;21.17;15.63;;;1.60;99.90;;;;;;5061677;28;20299;-80
2023/03/09 08:51:01;;;;;;;25.55;17.10;;;1.60;99.90;;;;;;5077477;28;20275;-79
2023/03/09 08:53:28;;;;;;;22.83;16.73;;;1.60;99.90;;;;;;5079873;28;20242;-79
2023/03/09 08:55:54;;;;;;;24.23;16.80;;;1.50;99.80;;;;;;5075983;28;20208;-80
2023/03/09 08:58:21;;;;;;;23.88;17.05;;;1.60;99.90;;;;;;5061601;28;20208;-79
2023/03/09 09:00:48;;;;;;;27.35;16.50;;;1.60;99.90;;;;;;5059368;28;20233;-79
2023/03/09 09:03:17;;;;;;;24.38;16.35;;;1.50;99.90;;;;;;5058819;28;20566;-80
2023/03/09 09:05:44;;;;;;;30.50;17.42;;;1.60;99.90;;;;;;5057025;28;20226;-79
2023/03/09 09:08:10;;;;;;;27.23;18.48;;;1.60;99.90;;;;;;5060674;28;20200;-80
2023/03/09 09:10:40;;;;;;;26.27;16.88;;;1.50;99.90;;;;;;5059604;28;20642;-81
2023/03/09 09:13:06;;;;;;;27.85;16.45;;;1.50;99.90;;;;;;5059670;28;20322;-80
2023/03/09 09:15:33;;;;;;;29.27;18.98;;;1.50;82.50;;;;;;5059709;28;20206;-82
2023/03/09 09:18:00;;;;;;;27.35;17.85;;;1.50;99.90;;;;;;5057347;28;20204;-79
2023/03/09 09:20:29;;;;;;;28.35;16.77;;;1.50;99.90;;;;;;5067651;28;20246;-80
2023/03/09 09:22:56;;;;;;;28.10;18.40;;;1.80;99.90;;;;;;5076763;28;20168;-79
2023/03/09 09:25:22;;;;;;;26.83;19.58;;;1.50;99.90;;;;;;5066031;28;20271;-79
2023/03/09 09:27:50;;;;;;;29.40;18.23;;;1.50;99.90;;;;;;5069160;28;20275;-80
2023/03/09 09:30:17;;;;;;;26.83;19.80;;;1.70;99.90;;;;;;5071582;28;20214;-79
2023/03/09 09:32:44;;;;;;;32.08;18.27;;;1.60;99.90;;;;;;5068872;28;20220;-81
2023/03/09 09:35:12;;;;;;;29.05;19.67;;;1.60;99.90;;;;;;5066670;28;20231;-80
2023/03/09 09:37:41;;;;;;;27.65;19.67;;;1.60;99.90;;;;;;5066386;28;20257;-81
2023/03/09 09:40:12;;;;;;;33.90;18.40;;;1.40;99.90;;;;;;5064956;28;20211;-80
2023/03/09 09:42:42;;;;;;;29.83;19.42;;;1.60;93.60;;;;;;5063709;28;20601;-80
2023/03/09 09:45:24;;;;;;;29.90;19.50;;;1.60;99.90;;;;;;5062500;28;20210;-79
2023/03/09 09:47:52;;;;;;;34.20;19.05;;;1.60;99.90;;;;;;5061651;28;20278;-80
2023/03/09 09:50:21;;;;;;;28.17;18.05;;;1.60;99.90;;;;;;5059595;28;20314;-80
2023/03/09 09:52:56;;;;;;;27.35;17.95;;;1.60;93.10;;;;;;5059962;28;20310;-81
2023/03/09 09:55:26;;;;;;;28.95;19.15;;;1.60;95.00;;;;;;5061868;28;20196;-80
2023/03/09 09:58:01;;;;;;;30.05;19.60;;;1.60;99.90;;;;;;5059951;28;20188;-80
2023/03/09 10:00:34;;;;;;;26.00;19.20;;;1.60;99.60;;;;;;5059929;28;20292;-81
2023/03/09 10:03:18;;;;;;;28.60;20.17;;;1.80;99.90;;;;;;5060801;28;20193;-81
2023/03/09 10:05:51;;;;;;;29.88;19.27;;;1.70;99.90;;;;;;5059821;28;20234;-80
2023/03/09 10:08:34;;;;;;;28.33;18.73;;;1.80;99.90;;;;;;5059256;28;20192;-80
2023/03/09 10:11:08;;;;;;;29.20;19.48;;;1.80;99.90;;;;;;5058767;28;20219;-80
2023/03/09 10:13:43;;;;;;;27.90;18.02;;;1.80;49.00;;;;;;5061072;28;20250;-79
2023/03/09 10:16:16;;;;;;;28.98;18.20;;;1.80;58.10;;;;;;5058844;28;20193;-80
2023/03/09 10:18:47;;;;;;;25.30;19.15;;;1.70;21.90;;;;;;5060824;28;20195;-80
2023/03/09 10:21:20;;;;;;;33.70;19.35;;;1.60;45.90;;;;;;5059549;28;20238;-80
2023/03/09 10:23:48;;;;;;;34.05;19.48;;;1.70;99.90;;;;;;5059424;28;20240;-80
2023/03/09 10:26:40;;;;;;;29.90;18.88;;;1.50;99.90;;;;;;5058932;28;20757;-82
2023/03/09 10:29:15;;;;;;;30.48;20.90;;;1.60;97.60;;;;;;5063925;28;20214;-80
2023/03/09 10:31:51;;;;;;;32.38;20.55;;;1.70;91.00;;;;;;5066601;28;20223;-79
2023/03/09 10:34:23;;;;;;;25.80;18.98;;;1.70;97.90;;;;;;5068498;28;20207;-80
2023/03/09 10:36:59;;;;;;;29.83;19.35;;;1.90;99.90;;;;;;5058744;28;20184;-80
2023/03/09 10:39:32;;;;;;;28.52;19.40;;;1.80;99.90;;;;;;5070342;28;20194;-80
2023/03/09 10:42:08;;;;;;;28.40;19.60;;;1.70;52.50;;;;;;5071002;28;20253;-80
2023/03/09 10:44:36;;;;;;;28.33;21.08;;;1.80;33.30;;;;;;5070424;28;20184;-80
2023/03/09 10:47:03;;;;;;;30.15;19.85;;;1.30;99.90;;;;;;5071432;28;20697;-80
2023/03/09 10:49:30;;;;;;;28.13;19.13;;;1.70;71.20;;;;;;5073051;28;20207;-80
2023/03/09 10:52:00;;;;;;;26.77;19.92;;;1.80;99.90;;;;;;5071019;28;20314;-80
2023/03/09 10:54:34;;;;;;;29.48;19.80;;;1.70;48.30;;;;;;5065641;28;20220;-81
2023/03/09 10:57:02;;;;;;;27.73;19.52;;;1.70;75.90;;;;;;5065656;28;20198;-80
2023/03/09 10:59:30;;;;;;;30.88;19.95;;;1.70;86.00;;;;;;5066646;28;20207;-81
2023/03/09 11:01:59;;;;;;;29.50;18.10;;;1.70;79.80;;;;;;5064409;28;20241;-81
2023/03/09 11:04:34;;;;;;;30.88;19.95;;;1.70;99.90;;;;;;5063748;28;20199;-80
2023/03/09 11:07:04;;;;;;;32.08;20.77;;;1.60;87.90;;;;;;5060551;28;20196;-81
2023/03/09 11:09:35;;;;;;;32.08;20.60;;;1.60;76.10;;;;;;5059321;28;20209;-81
2023/03/09 11:12:19;;;;;;;30.95;19.45;;;1.60;99.90;;;;;;5059656;28;20226;-80
2023/03/09 11:14:49;;;;;;;30.55;19.73;;;1.50;99.90;;;;;;5058982;28;20612;-80
2023/03/09 11:17:29;;;;;;;28.23;18.70;;;1.70;99.90;;;;;;5060621;28;20198;-80
2023/03/09 11:20:32;;;;;;;28.75;18.63;;;1.70;99.90;;;;;;5058548;28;20191;-81
2023/03/09 11:23:10;;;;;;;28.40;19.73;;;1.60;99.90;;;;;;5058271;28;20289;-80
2023/03/09 11:25:57;;;;;;;31.50;19.23;;;1.60;99.90;;;;;;5059862;28;20215;-80
2023/03/09 11:28:30;;;;;;;29.95;20.65;;;1.70;99.90;;;;;;5062147;28;20588;-81
2023/03/09 11:30:58;;;;;;;38.28;23.15;;;1.70;99.90;;;;;;5061960;28;20220;-80
2023/03/09 11:33:26;;;;;;;32.60;20.35;;;1.70;99.90;;;;;;5061806;28;20251;-80
2023/03/09 11:36:00;;;;;;;33.67;21.35;;;1.90;99.90;;;;;;5060968;28;20199;-80
2023/03/09 11:38:30;;;;;;;33.00;20.85;;;1.80;99.90;;;;;;5064317;28;20188;-81
2023/03/09 11:41:07;;;;;;;33.67;19.88;;;1.80;99.90;;;;;;5074395;28;20254;-81
2023/03/09 11:43:38;;;;;;;30.05;19.65;;;1.80;99.90;;;;;;5071214;28;20323;-79
2023/03/09 11:46:10;;;;;;;32.33;20.33;;;1.60;99.90;;;;;;5063410;28;20740;-80
2023/03/09 11:48:42;;;;;;;31.10;19.23;;;1.80;99.90;;;;;;5063332;28;20187;-80
2023/03/09 11:51:14;;;;;;;33.33;21.17;;;1.60;99.90;;;;;;5066474;28;20315;-80
2023/03/09 11:53:44;;;;;;;27.35;20.60;;;1.60;99.90;;;;;;5064435;28;20204;-81
2023/03/09 11:56:20;;;;;;;32.92;21.95;;;1.60;99.90;;;;;;5064166;28;20618;-80
2023/03/09 11:58:53;;;;;;;33.42;21.58;;;1.60;99.90;;;;;;5062205;28;20250;-79
2023/03/09 12:01:27;;;;;;;28.23;19.50;;;1.70;99.90;;;;;;5060424;28;20224;-80
2023/03/09 12:04:00;;;;;;;34.00;20.95;;;1.80;99.90;;;;;;5064722;28;20179;-80
2023/03/09 12:06:43;;;;;;;26.92;20.83;;;1.70;99.90;;;;;;5068794;28;20223;-80
2023/03/09 12:09:18;;;;;;;35.80;23.10;;;1.70;99.90;;;;;;5066572;28;20193;-79
2023/03/09 12:11:51;;;;;;;32.13;20.92;;;1.70;99.90;;;;;;5068449;28;20257;-81
2023/03/09 12:14:23;;;;;;;33.15;22.15;;;1.70;99.90;;;;;;5066751;28;20212;-82
2023/03/09 12:16:53;;;;;;;26.63;19.30;;;1.70;99.90;;;;;;5067327;28;20194;-80
2023/03/09 12:19:22;;;;;;;35.70;21.55;;;1.70;99.90;;;;;;5062651;28;20226;-83
2023/03/09 12:22:03;;;;;;;37.33;21.25;;;1.80;99.90;;;;;;5061362;28;20230;-82
2023/03/09 12:24:38;;;;;;;35.15;22.80;;;1.70;99.90;;;;;;5060942;28;20184;-80
2023/03/09 12:27:15;;;;;;;33.25;21.33;;;1.80;99.90;;;;;;5063900;28;20189;-81
2023/03/09 12:29:47;;;;;;;33.38;20.50;;;1.80;99.90;;;;;;5073991;28;20218;-79
2023/03/09 12:32:35;;;;;;;40.15;24.00;;;1.80;99.90;;;;;;5073586;28;20246;-80
2023/03/09 12:35:08;;;;;;;34.78;21.55;;;1.80;99.90;;;;;;5060281;28;20218;-80
2023/03/09 12:38:13;;;;;;;33.67;20.63;;;1.90;99.90;;;;;;5060410;28;20192;-81
2023/03/09 12:40:41;;;;;;;33.15;22.13;;;1.90;99.90;;;;;;5059510;28;20224;-80
2023/03/09 12:43:48;;;;;;;38.00;22.42;;;1.90;99.90;;;;;;5059932;28;20212;-81
2023/03/09 12:46:52;;;;;;;36.33;21.73;;;1.90;99.90;;;;;;5054297;28;20231;-81
2023/03/09 12:49:24;;;;;;;37.55;22.77;;;1.80;99.90;;;;;;5059526;28;20184;-81
2023/03/09 12:52:15;;;;;;;34.25;22.15;;;1.90;99.90;;;;;;5059430;28;20237;-80
2023/03/09 12:54:43;;;;;;;39.33;22.48;;;2.90;99.90;;;;;;5059294;28;20577;-80